createdAt,value
2023-03-02T00:01:39.549Z,102003.16
2023-03-02T00:04:09.599Z,101994.53
2023-03-02T00:06:39.534Z,101992.47
2023-03-02T00:09:06.501Z,102000.22
2023-03-02T00:11:34.404Z,101997.63
2023-03-02T00:14:01.067Z,101999.69
2023-03-02T00:16:28.543Z,102000.78
2023-03-02T00:18:55.187Z,101995.16
2023-03-02T00:21:24.121Z,101992.84
2023-03-02T00:23:52.409Z,101998.00
2023-03-02T00:26:19.012Z,101991.63
2023-03-02T00:28:45.679Z,101985.22
2023-03-02T00:31:12.923Z,101983.34
2023-03-02T00:33:39.687Z,101983.34
2023-03-02T00:36:06.740Z,101981.47
2023-03-02T00:38:33.363Z,101986.81
2023-03-02T00:41:00.101Z,101979.84
2023-03-02T00:43:29.832Z,101975.03
2023-03-02T00:45:58.574Z,101972.47
2023-03-02T00:48:27.636Z,101968.19
2023-03-02T00:50:54.608Z,101968.16
2023-03-02T00:53:21.183Z,101958.41
2023-03-02T00:55:59.087Z,101958.78
2023-03-02T00:58:31.908Z,101953.56
2023-03-02T01:00:59.158Z,101962.56
2023-03-02T01:03:25.910Z,101957.84
2023-03-02T01:05:56.369Z,101965.44
2023-03-02T01:08:23.565Z,101963.66
2023-03-02T01:10:50.284Z,101953.97
2023-03-02T01:13:16.966Z,101957.34
2023-03-02T01:15:43.695Z,101956.19
2023-03-02T01:18:12.082Z,101955.25
2023-03-02T01:20:38.832Z,101953.09
2023-03-02T01:23:05.514Z,101948.97
2023-03-02T01:25:32.175Z,101955.56
2023-03-02T01:27:59.262Z,101945.50
2023-03-02T01:30:25.872Z,101945.06
2023-03-02T01:32:52.697Z,101947.81
2023-03-02T01:35:19.338Z,101939.25
2023-03-02T01:37:45.967Z,101942.56
2023-03-02T01:40:13.975Z,101943.53
2023-03-02T01:42:46.856Z,101938.81
2023-03-02T01:45:44.595Z,101941.06
2023-03-02T01:48:12.963Z,101947.03
2023-03-02T01:50:40.081Z,101938.94
2023-03-02T01:53:07.329Z,101940.25
2023-03-02T01:55:35.263Z,101931.84
2023-03-02T01:58:02.805Z,101930.50
2023-03-02T02:00:32.898Z,101926.53
2023-03-02T02:03:11.690Z,101920.22
2023-03-02T02:05:40.425Z,101922.91
2023-03-02T02:08:07.755Z,101930.34
2023-03-02T02:10:34.903Z,101927.66
2023-03-02T02:13:01.661Z,101921.75
2023-03-02T02:15:28.505Z,101925.31
2023-03-02T02:17:55.648Z,101912.56
2023-03-02T02:20:34.274Z,101915.97
2023-03-02T02:23:15.855Z,101912.66
2023-03-02T02:25:53.135Z,101920.00
2023-03-02T02:28:23.140Z,101914.56
2023-03-02T02:31:02.404Z,101914.09
2023-03-02T02:33:29.101Z,101916.47
2023-03-02T02:36:00.281Z,101912.41
2023-03-02T02:38:27.159Z,101902.78
2023-03-02T02:40:55.851Z,101910.31
2023-03-02T02:43:23.408Z,101902.47
2023-03-02T02:45:52.886Z,101900.94
2023-03-02T02:48:23.077Z,101915.31
2023-03-02T02:50:50.148Z,101908.78
2023-03-02T02:53:20.581Z,101906.34
2023-03-02T02:55:49.138Z,101904.44
2023-03-02T02:58:25.065Z,101902.72
2023-03-02T03:00:53.910Z,101900.16
2023-03-02T03:03:29.485Z,101898.03
2023-03-02T03:05:57.927Z,101895.88
2023-03-02T03:08:43.395Z,101905.94
2023-03-02T03:11:14.600Z,101906.91
2023-03-02T03:13:43.396Z,101901.59
2023-03-02T03:16:11.887Z,101896.28
2023-03-02T03:18:39.116Z,101898.44
2023-03-02T03:21:05.887Z,101897.84
2023-03-02T03:23:32.799Z,101892.53
2023-03-02T03:26:01.718Z,101901.59
2023-03-02T03:28:28.538Z,101905.72
2023-03-02T03:30:56.247Z,101915.34
2023-03-02T03:33:23.138Z,101914.44
2023-03-02T03:35:49.830Z,101917.19
2023-03-02T03:38:16.911Z,101918.25
2023-03-02T03:40:43.599Z,101927.06
2023-03-02T03:43:12.409Z,101926.72
2023-03-02T03:45:39.179Z,101921.06
2023-03-02T03:48:05.924Z,101922.34
2023-03-02T03:50:32.803Z,101916.84
2023-03-02T03:52:59.427Z,101912.19
2023-03-02T03:55:28.468Z,101908.47
2023-03-02T03:57:55.407Z,101903.75
2023-03-02T04:00:22.822Z,101908.38
2023-03-02T04:02:50.641Z,101917.66
2023-03-02T04:05:17.606Z,101913.31
2023-03-02T04:07:44.254Z,101916.63
2023-03-02T04:10:12.408Z,101915.88
2023-03-02T04:12:40.607Z,101906.47
2023-03-02T04:15:09.664Z,101911.09
2023-03-02T04:17:36.382Z,101917.91
2023-03-02T04:20:07.706Z,101917.44
2023-03-02T04:22:34.347Z,101916.34
2023-03-02T04:25:01.053Z,101915.06
2023-03-02T04:27:27.689Z,101912.66
2023-03-02T04:29:54.343Z,101914.50
2023-03-02T04:32:21.097Z,101916.81
2023-03-02T04:34:47.723Z,101916.81
2023-03-02T04:37:15.969Z,101924.47
2023-03-02T04:39:43.234Z,101926.31
2023-03-02T04:42:09.873Z,101923.28
2023-03-02T04:44:36.450Z,101929.06
2023-03-02T04:47:03.135Z,101929.28
2023-03-02T04:49:30.078Z,101924.59
2023-03-02T04:51:56.738Z,101918.59
2023-03-02T04:54:25.752Z,101924.19
2023-03-02T04:56:53.522Z,101923.47
2023-03-02T04:59:23.977Z,101924.50
2023-03-02T05:01:50.705Z,101923.13
2023-03-02T05:04:17.815Z,101922.50
2023-03-02T05:06:46.612Z,101923.72
2023-03-02T05:09:14.322Z,101921.84
2023-03-02T05:11:41.098Z,101918.94
2023-03-02T05:14:10.270Z,101917.44
2023-03-02T05:16:38.607Z,101919.47
2023-03-02T05:19:06.919Z,101918.25
2023-03-02T05:21:34.008Z,101916.09
2023-03-02T05:24:00.664Z,101918.25
2023-03-02T05:26:28.353Z,101912.03
2023-03-02T05:28:55.576Z,101918.28
2023-03-02T05:31:26.286Z,101920.97
2023-03-02T05:33:53.333Z,101918.50
2023-03-02T05:36:22.913Z,101922.88
2023-03-02T05:38:49.886Z,101917.84
2023-03-02T05:41:16.810Z,101921.91
2023-03-02T05:43:43.605Z,101918.44
2023-03-02T05:46:10.204Z,101921.41
2023-03-02T05:48:37.129Z,101914.84
2023-03-02T05:51:04.114Z,101920.72
2023-03-02T05:53:30.907Z,101929.03
2023-03-02T05:55:57.625Z,101925.94
2023-03-02T05:58:24.253Z,101928.03
2023-03-02T06:00:51.537Z,101926.13
2023-03-02T06:03:18.400Z,101925.78
2023-03-02T06:05:45.198Z,101931.03
2023-03-02T06:08:11.882Z,101942.47
2023-03-02T06:10:38.606Z,101939.81
2023-03-02T06:13:05.279Z,101937.09
2023-03-02T06:15:31.981Z,101947.75
2023-03-02T06:17:58.655Z,101950.94
2023-03-02T06:20:25.508Z,101948.03
2023-03-02T06:22:52.763Z,101943.91
2023-03-02T06:25:23.833Z,101950.38
2023-03-02T06:27:54.006Z,101941.59
2023-03-02T06:30:23.876Z,101950.94
2023-03-02T06:32:50.895Z,101944.19
2023-03-02T06:35:17.776Z,101942.41
2023-03-02T06:37:44.805Z,101944.19
2023-03-02T06:40:14.014Z,101948.25
2023-03-02T06:42:41.956Z,101943.28
2023-03-02T06:45:10.010Z,101944.06
2023-03-02T06:47:36.912Z,101942.34
2023-03-02T06:50:03.983Z,101950.72
2023-03-02T06:52:30.630Z,101949.81
2023-03-02T06:54:57.254Z,101945.66
2023-03-02T06:57:23.985Z,101953.34
2023-03-02T06:59:50.763Z,101941.59
2023-03-02T07:02:17.404Z,101944.28
2023-03-02T07:04:44.042Z,101943.41
2023-03-02T07:07:13.409Z,101938.72
2023-03-02T07:09:40.064Z,101944.88
2023-03-02T07:12:06.711Z,101938.19
2023-03-02T07:14:35.794Z,101934.84
2023-03-02T07:17:05.120Z,101944.44
2023-03-02T07:19:31.921Z,101941.75
2023-03-02T07:21:58.591Z,101938.25
2023-03-02T07:24:25.284Z,101933.25
2023-03-02T07:26:52.028Z,101931.53
2023-03-02T07:29:18.648Z,101935.84
2023-03-02T07:31:45.247Z,101932.25
2023-03-02T07:34:11.827Z,101929.66
2023-03-02T07:36:38.579Z,101936.47
2023-03-02T07:39:05.547Z,101925.66
2023-03-02T07:41:32.463Z,101930.72
2023-03-02T07:43:59.214Z,101925.53
2023-03-02T07:46:25.956Z,101933.13
2023-03-02T07:48:53.998Z,101939.88
2023-03-02T07:51:20.592Z,101926.84
2023-03-02T07:53:47.178Z,101933.69
2023-03-02T07:56:13.891Z,101930.47
2023-03-02T07:58:40.625Z,101934.19
2023-03-02T08:01:07.321Z,101942.41
2023-03-02T08:03:34.072Z,101932.84
2023-03-02T08:06:10.875Z,101930.63
2023-03-02T08:08:37.982Z,101937.38
2023-03-02T08:11:09.695Z,101932.88
2023-03-02T08:13:36.963Z,101923.31
2023-03-02T08:16:05.425Z,101931.72
2023-03-02T08:18:32.757Z,101930.53
2023-03-02T08:20:59.820Z,101919.34
2023-03-02T08:23:26.983Z,101915.47
2023-03-02T08:25:54.515Z,101921.31
2023-03-02T08:28:22.369Z,101910.63
2023-03-02T08:30:56.796Z,101907.06
2023-03-02T08:33:23.442Z,101903.72
2023-03-02T08:36:00.997Z,101911.69
2023-03-02T08:38:28.455Z,101901.47
2023-03-02T08:40:55.218Z,101905.25
2023-03-02T08:43:23.694Z,101913.28
2023-03-02T08:45:52.206Z,101903.13
2023-03-02T08:48:20.046Z,101904.47
2023-03-02T08:51:00.659Z,101909.06
2023-03-02T08:53:29.356Z,101913.84
2023-03-02T08:55:55.925Z,101899.34
2023-03-02T08:58:22.854Z,101896.69
2023-03-02T09:00:49.596Z,101895.53
2023-03-02T09:03:16.344Z,101888.63
2023-03-02T09:05:42.989Z,101886.72
2023-03-02T09:08:10.083Z,101886.84
2023-03-02T09:10:36.852Z,101887.53
2023-03-02T09:13:03.690Z,101885.69
2023-03-02T09:15:30.467Z,101882.00
2023-03-02T09:17:57.147Z,101886.34
2023-03-02T09:20:23.832Z,101888.69
2023-03-02T09:22:50.905Z,101884.38
2023-03-02T09:25:18.762Z,101888.56
2023-03-02T09:27:46.338Z,101882.31
2023-03-02T09:30:14.306Z,101891.00
2023-03-02T09:32:41.409Z,101891.81
2023-03-02T09:35:08.525Z,101900.28
2023-03-02T09:37:37.398Z,101895.59
2023-03-02T09:40:05.154Z,101897.41
2023-03-02T09:43:04.545Z,101891.66
2023-03-02T09:45:47.383Z,101889.06
2023-03-02T09:48:35.632Z,101890.28
2023-03-02T09:51:12.259Z,101891.75
2023-03-02T09:53:49.372Z,101889.59
2023-03-02T09:56:18.036Z,101889.41
2023-03-02T09:58:53.001Z,101885.25
2023-03-02T10:01:37.674Z,101876.16
2023-03-02T10:04:24.550Z,101883.75
2023-03-02T10:07:12.503Z,101880.47
2023-03-02T10:09:40.019Z,101883.13
2023-03-02T10:12:20.061Z,101879.69
2023-03-02T10:14:59.107Z,101873.94
2023-03-02T10:17:37.224Z,101877.25
2023-03-02T10:20:09.346Z,101883.22
2023-03-02T10:22:40.197Z,101873.81
2023-03-02T10:25:35.569Z,101870.66
2023-03-02T10:28:14.256Z,101863.22
2023-03-02T10:30:41.197Z,101863.06
2023-03-02T10:33:16.900Z,101863.59
2023-03-02T10:35:49.355Z,101860.56
2023-03-02T10:38:19.801Z,101864.66
2023-03-02T10:41:00.159Z,101871.00
2023-03-02T10:43:41.171Z,101866.66
2023-03-02T10:46:10.978Z,101874.81
2023-03-02T10:48:51.923Z,101876.34
2023-03-02T10:51:37.463Z,101866.50
2023-03-02T10:54:09.942Z,101868.50
2023-03-02T10:56:36.852Z,101869.78
2023-03-02T10:59:28.506Z,101861.00
2023-03-02T11:02:23.433Z,101869.75
2023-03-02T11:04:58.161Z,101861.16
2023-03-02T11:07:27.759Z,101865.81
2023-03-02T11:10:04.179Z,101858.31
2023-03-02T11:12:31.697Z,101855.00
2023-03-02T11:15:22.508Z,101860.81
2023-03-02T11:17:54.383Z,101860.66
2023-03-02T11:20:25.494Z,101863.50
2023-03-02T11:22:59.739Z,101857.38
2023-03-02T11:25:28.690Z,101855.78
2023-03-02T11:28:33.704Z,101844.84
2023-03-02T11:31:01.845Z,101848.44
2023-03-02T11:33:36.318Z,101853.50
2023-03-02T11:36:04.924Z,101851.56
2023-03-02T11:38:47.521Z,101852.84
2023-03-02T11:41:20.242Z,101851.41
2023-03-02T11:43:46.835Z,101846.16
2023-03-02T11:46:23.360Z,101841.22
2023-03-02T11:48:53.585Z,101840.59
2023-03-02T11:51:29.073Z,101844.72
2023-03-02T11:53:57.949Z,101833.63
2023-03-02T11:56:25.804Z,101836.84
2023-03-02T11:58:58.873Z,101838.66
2023-03-02T12:01:27.051Z,101835.94
2023-03-02T12:03:54.554Z,101831.00
2023-03-02T12:06:21.089Z,101825.97
2023-03-02T12:08:49.921Z,101822.94
2023-03-02T12:11:16.470Z,101829.59
2023-03-02T12:13:45.472Z,101830.47
2023-03-02T12:16:22.704Z,101828.50
2023-03-02T12:18:51.432Z,101824.78
2023-03-02T12:21:23.371Z,101827.59
2023-03-02T12:23:49.979Z,101826.56
2023-03-02T12:26:19.584Z,101834.28
2023-03-02T12:29:01.415Z,101824.56
2023-03-02T12:31:46.808Z,101825.81
2023-03-02T12:34:42.548Z,101818.63
2023-03-02T12:37:38.004Z,101816.94
2023-03-02T12:40:42.323Z,101814.53
2023-03-02T12:43:20.553Z,101798.97
2023-03-02T12:46:18.067Z,101799.66
2023-03-02T12:48:48.986Z,101795.44
2023-03-02T12:51:24.838Z,101795.34
2023-03-02T12:54:12.648Z,101793.06
2023-03-02T12:56:39.376Z,101796.38
2023-03-02T12:59:07.283Z,101786.06
2023-03-02T13:01:34.294Z,101777.91
2023-03-02T13:04:01.015Z,101784.28
2023-03-02T13:06:31.592Z,101778.28
2023-03-02T13:09:00.472Z,101773.53
2023-03-02T13:11:35.119Z,101783.41
2023-03-02T13:14:05.632Z,101773.69
2023-03-02T13:16:34.381Z,101771.72
2023-03-02T13:19:03.643Z,101769.16
2023-03-02T13:21:39.861Z,101765.16
2023-03-02T13:24:43.881Z,101766.88
2023-03-02T13:27:19.599Z,101772.19
2023-03-02T13:29:47.323Z,101772.28
2023-03-02T13:32:23.305Z,101771.06
2023-03-02T13:34:55.718Z,101758.84
2023-03-02T13:37:30.167Z,101755.69
2023-03-02T13:39:59.367Z,101758.47
2023-03-02T13:42:29.438Z,101755.25
2023-03-02T13:44:56.131Z,101751.50
2023-03-02T13:47:24.690Z,101746.78
2023-03-02T13:49:52.046Z,101742.41
2023-03-02T13:52:29.069Z,101739.25
2023-03-02T13:54:55.740Z,101728.00
2023-03-02T13:57:31.793Z,101725.94
2023-03-02T13:59:59.321Z,101736.00
2023-03-02T14:02:30.415Z,101724.06
2023-03-02T14:04:57.504Z,101720.84
2023-03-02T14:07:24.196Z,101723.84
2023-03-02T14:09:50.889Z,101719.56
2023-03-02T14:12:31.310Z,101720.31
2023-03-02T14:15:00.789Z,101722.91
2023-03-02T14:17:27.863Z,101717.69
2023-03-02T14:19:55.337Z,101718.84
2023-03-02T14:22:23.276Z,101708.22
2023-03-02T14:24:49.927Z,101706.81
2023-03-02T14:27:17.802Z,101704.22
2023-03-02T14:29:45.418Z,101701.25
2023-03-02T14:32:13.709Z,101700.47
2023-03-02T14:34:40.957Z,101694.19
2023-03-02T14:37:13.673Z,101685.47
2023-03-02T14:39:46.933Z,101682.53
2023-03-02T14:42:16.143Z,101679.28
2023-03-02T14:44:43.697Z,101669.44
2023-03-02T14:47:11.028Z,101668.84
2023-03-02T14:49:38.582Z,101668.28
2023-03-02T14:52:13.080Z,101666.47
2023-03-02T14:54:43.877Z,101665.06
2023-03-02T14:57:17.464Z,101664.13
2023-03-02T14:59:44.131Z,101668.09
2023-03-02T15:02:24.311Z,101661.09
2023-03-02T15:04:56.084Z,101668.75
2023-03-02T15:07:24.322Z,101662.06
2023-03-02T15:09:51.031Z,101663.34
2023-03-02T15:12:17.726Z,101663.06
2023-03-02T15:14:44.321Z,101656.75
2023-03-02T15:17:11.027Z,101657.31
2023-03-02T15:19:37.692Z,101650.59
2023-03-02T15:22:04.653Z,101652.13
2023-03-02T15:24:33.196Z,101655.88
2023-03-02T15:27:00.659Z,101649.81
2023-03-02T15:29:27.380Z,101644.50
2023-03-02T15:31:54.174Z,101645.44
2023-03-02T15:34:20.831Z,101652.91
2023-03-02T15:36:47.478Z,101648.09
2023-03-02T15:39:14.674Z,101645.81
2023-03-02T15:41:44.378Z,101643.66
2023-03-02T15:44:21.882Z,101644.56
2023-03-02T15:46:49.801Z,101642.41
2023-03-02T15:49:17.062Z,101643.69
2023-03-02T15:51:43.685Z,101631.31
2023-03-02T15:54:11.731Z,101638.84
2023-03-02T15:56:43.991Z,101638.22
2023-03-02T15:59:11.795Z,101634.97
2023-03-02T16:01:38.424Z,101633.22
2023-03-02T16:04:05.126Z,101636.16
2023-03-02T16:06:31.810Z,101631.09
2023-03-02T16:08:58.551Z,101633.56
2023-03-02T16:11:25.237Z,101631.22
2023-03-02T16:13:52.377Z,101634.09
2023-03-02T16:16:19.924Z,101627.84
2023-03-02T16:18:54.141Z,101636.81
2023-03-02T16:21:20.962Z,101632.00
2023-03-02T16:23:47.605Z,101629.75
2023-03-02T16:26:16.306Z,101631.19
2023-03-02T16:28:42.946Z,101632.31
2023-03-02T16:31:15.716Z,101637.13
2023-03-02T16:33:42.606Z,101628.28
2023-03-02T16:36:10.152Z,101634.13
2023-03-02T16:38:37.833Z,101635.75
2023-03-02T16:41:05.558Z,101638.69
2023-03-02T16:43:32.184Z,101635.06
2023-03-02T16:45:59.980Z,101636.50
2023-03-02T16:48:26.690Z,101632.19
2023-03-02T16:50:57.163Z,101642.47
2023-03-02T16:53:24.245Z,101634.91
2023-03-02T16:55:52.917Z,101630.94
2023-03-02T16:58:19.619Z,101635.59
2023-03-02T17:00:46.477Z,101632.25
2023-03-02T17:03:13.151Z,101644.25
2023-03-02T17:05:42.727Z,101632.25
2023-03-02T17:08:13.549Z,101642.00
2023-03-02T17:10:40.993Z,101646.63
2023-03-02T17:13:08.164Z,101643.25
2023-03-02T17:15:34.873Z,101658.63
2023-03-02T17:18:01.689Z,101648.72
2023-03-02T17:20:28.347Z,101656.53
2023-03-02T17:22:55.078Z,101662.25
2023-03-02T17:25:22.070Z,101658.88
2023-03-02T17:27:50.160Z,101670.94
2023-03-02T17:30:17.432Z,101674.66
2023-03-02T17:32:44.112Z,101667.56
2023-03-02T17:35:12.315Z,101674.94
2023-03-02T17:37:39.208Z,101670.69
2023-03-02T17:40:06.724Z,101671.16
2023-03-02T17:42:33.329Z,101669.16
2023-03-02T17:45:00.011Z,101669.31
2023-03-02T17:47:26.659Z,101667.91
2023-03-02T17:49:54.566Z,101658.28
2023-03-02T17:52:21.807Z,101668.50
2023-03-02T17:54:48.503Z,101661.91
2023-03-02T17:57:16.471Z,101660.94
2023-03-02T17:59:43.133Z,101667.09
2023-03-02T18:02:10.403Z,101663.53
2023-03-02T18:04:37.125Z,101662.72
2023-03-02T18:07:03.791Z,101654.16
2023-03-02T18:09:30.491Z,101660.34
2023-03-02T18:12:00.776Z,101664.84
2023-03-02T18:14:28.490Z,101655.34
2023-03-02T18:16:55.182Z,101655.16
2023-03-02T18:19:21.778Z,101650.84
2023-03-02T18:21:48.387Z,101642.16
2023-03-02T18:24:14.970Z,101638.69
2023-03-02T18:26:41.756Z,101649.97
2023-03-02T18:29:08.380Z,101641.34
2023-03-02T18:31:35.131Z,101653.88
2023-03-02T18:34:02.528Z,101657.31
2023-03-02T18:36:29.261Z,101649.19
2023-03-02T18:38:55.991Z,101652.66
2023-03-02T18:41:23.715Z,101654.44
2023-03-02T18:43:50.839Z,101652.06
2023-03-02T18:46:23.410Z,101646.09
2023-03-02T18:48:51.251Z,101651.19
2023-03-02T18:51:19.327Z,101650.88
2023-03-02T18:53:46.244Z,101648.44
2023-03-02T18:56:13.257Z,101654.47
2023-03-02T18:58:39.949Z,101648.44
2023-03-02T19:01:07.192Z,101656.47
2023-03-02T19:03:35.433Z,101663.94
2023-03-02T19:06:02.097Z,101654.91
2023-03-02T19:08:29.562Z,101655.56
2023-03-02T19:10:56.227Z,101641.81
2023-03-02T19:13:22.868Z,101648.69
2023-03-02T19:15:49.992Z,101656.72
2023-03-02T19:18:21.437Z,101660.88
2023-03-02T19:20:50.000Z,101661.72
2023-03-02T19:23:17.309Z,101659.88
2023-03-02T19:25:44.775Z,101666.56
2023-03-02T19:28:11.874Z,101675.78
2023-03-02T19:30:40.051Z,101668.97
2023-03-02T19:33:09.264Z,101677.19
2023-03-02T19:35:37.652Z,101664.84
2023-03-02T19:38:05.467Z,101679.72
2023-03-02T19:40:32.623Z,101684.63
2023-03-02T19:42:59.300Z,101679.38
2023-03-02T19:45:29.377Z,101681.72
2023-03-02T19:47:57.769Z,101682.50
2023-03-02T19:50:26.183Z,101683.94
2023-03-02T19:52:54.827Z,101673.53
2023-03-02T19:55:22.348Z,101678.00
2023-03-02T19:57:51.512Z,101685.09
2023-03-02T20:00:19.472Z,101690.41
2023-03-02T20:02:47.284Z,101686.09
2023-03-02T20:05:14.701Z,101695.44
2023-03-02T20:07:41.896Z,101695.44
2023-03-02T20:10:10.791Z,101692.91
2023-03-02T20:12:37.544Z,101683.00
2023-03-02T20:15:05.974Z,101684.22
2023-03-02T20:17:33.777Z,101688.78
2023-03-02T20:20:01.325Z,101692.59
2023-03-02T20:22:28.035Z,101681.84
2023-03-02T20:24:54.698Z,101672.22
2023-03-02T20:27:21.391Z,101678.03
2023-03-02T20:29:48.140Z,101677.34
2023-03-02T20:32:16.450Z,101681.19
2023-03-02T20:34:44.050Z,101676.16
2023-03-02T20:37:13.485Z,101680.00
2023-03-02T20:39:42.294Z,101679.72
2023-03-02T20:42:11.029Z,101682.59
2023-03-02T20:44:37.729Z,101689.75
2023-03-02T20:47:13.151Z,101666.31
2023-03-02T20:49:40.140Z,101670.91
2023-03-02T20:52:07.982Z,101681.06
2023-03-02T20:54:38.727Z,101687.06
2023-03-02T20:57:05.798Z,101682.41
2023-03-02T20:59:33.244Z,101685.00
2023-03-02T21:02:04.703Z,101680.13
2023-03-02T21:04:31.524Z,101682.56
2023-03-02T21:07:01.285Z,101680.44
2023-03-02T21:09:33.681Z,101673.22
2023-03-02T21:12:00.365Z,101676.28
2023-03-02T21:14:30.671Z,101677.34
2023-03-02T21:17:00.574Z,101684.44
2023-03-02T21:19:29.578Z,101676.63
2023-03-02T21:21:57.239Z,101686.09
2023-03-02T21:24:24.444Z,101688.06
2023-03-02T21:26:53.858Z,101685.56
2023-03-02T21:29:22.482Z,101686.81
2023-03-02T21:31:49.296Z,101686.41
2023-03-02T21:34:16.925Z,101679.69
2023-03-02T21:36:43.664Z,101678.75
2023-03-02T21:39:14.552Z,101677.81
2023-03-02T21:41:46.517Z,101672.03
2023-03-02T21:44:13.848Z,101672.75
2023-03-02T21:46:43.596Z,101659.56
2023-03-02T21:49:12.172Z,101659.91
2023-03-02T21:51:38.808Z,101661.34
2023-03-02T21:54:10.688Z,101653.75
2023-03-02T21:56:37.291Z,101656.53
2023-03-02T21:59:04.113Z,101647.16
2023-03-02T22:01:33.026Z,101638.09
2023-03-02T22:04:00.816Z,101643.00
2023-03-02T22:06:32.435Z,101642.63
2023-03-02T22:08:59.700Z,101651.09
2023-03-02T22:11:30.308Z,101649.13
2023-03-02T22:13:59.623Z,101649.00
2023-03-02T22:16:28.565Z,101643.00
2023-03-02T22:19:02.562Z,101635.31
2023-03-02T22:21:43.620Z,101641.69
2023-03-02T22:24:10.744Z,101631.41
2023-03-02T22:26:40.737Z,101649.00
2023-03-02T22:29:25.740Z,101636.38
2023-03-02T22:31:58.551Z,101641.59
2023-03-02T22:34:30.142Z,101639.88
2023-03-02T22:37:06.621Z,101639.72
2023-03-02T22:39:33.651Z,101624.41
2023-03-02T22:42:09.571Z,101613.13
2023-03-02T22:44:36.184Z,101608.91
2023-03-02T22:47:06.515Z,101610.59
2023-03-02T22:49:33.152Z,101614.28
2023-03-02T22:52:01.877Z,101627.94
2023-03-02T22:54:37.396Z,101625.28
2023-03-02T22:57:34.111Z,101613.19
2023-03-02T23:00:30.255Z,101614.03
2023-03-02T23:02:57.614Z,101611.44
2023-03-02T23:05:42.820Z,101612.06
2023-03-02T23:08:28.466Z,101613.72
2023-03-02T23:10:58.552Z,101610.75
2023-03-02T23:13:31.607Z,101616.09
2023-03-02T23:16:01.469Z,101627.94
2023-03-02T23:18:30.250Z,101629.84
2023-03-02T23:20:57.202Z,101634.53
2023-03-02T23:23:24.395Z,101637.38
2023-03-02T23:25:54.235Z,101629.38
2023-03-02T23:28:20.950Z,101636.53
2023-03-02T23:30:47.968Z,101632.56
2023-03-02T23:33:14.719Z,101631.38
2023-03-02T23:35:41.922Z,101628.91
2023-03-02T23:38:08.569Z,101633.31
2023-03-02T23:40:36.464Z,101629.91
2023-03-02T23:43:06.050Z,101631.75
2023-03-02T23:45:39.330Z,101630.09
2023-03-02T23:48:12.026Z,101630.22
2023-03-02T23:50:38.856Z,101624.13
2023-03-02T23:53:05.589Z,101614.91
2023-03-02T23:55:32.538Z,101628.09
2023-03-02T23:57:59.246Z,101627.19
